^^
Saratoga-Weather Station Historical Data
Daily Summary for May 11, 2020 Units:  Both    English   Metric
Daily Weekly Monthly Yearly Custom
  High: Low: Average:
Temperature: 62.8 °F /  17.1 °C 39.9 °F /  4.4 °C 46.9 °F /  8.3 °C
Dew Point: 59.5 °F /  15.3 °C 38.7 °F /  3.7 °C 44.2 °F /  6.8 °C
Humidity: 95% 80% 90%
Wind Speed: 13mph /  20.9km/h - 2.5mph /  4.1km/h
Wind Gust: 17mph /  27.4km/h - -
Wind- - SSW
Pressure: 30 in /  1015.2 hPa 29.6 in /  1001.4 hPa -
Precipitation: 0.43 in /  10.9 mm    
Historical Graphs
 
 
Tabular Data for May 11, 2020
Time Temperature Dew Point Pressure Wind Wind Speed Wind Gust Humidity Rainfall Rate (Hourly) solar
00:04 62.8 °F /  17.1 °C 59.5 °F /  15.3 °C 29.6in /  1002.0hPa WNW 2mph /  3.2km/h 6mph /  9.7km/h 89% 0in /  0.0mm 0 W/m2
00:09 62.6 °F /  17 °C 59.4 °F /  15.2 °C 29.6in /  1002.0hPa Calm   5mph /  8km/h 89% 0in /  0.0mm 0 W/m2
00:14 62.4 °F /  16.9 °C 59.2 °F /  15.1 °C 29.6in /  1002.0hPa Calm   1mph /  1.6km/h 89% 0in /  0.0mm 0 W/m2
00:19 62.4 °F /  16.9 °C 59.2 °F /  15.1 °C 29.6in /  1002.0hPa ENE 2.9mph /  4.7km/h 4mph /  6.4km/h 89% 0in /  0.0mm 0 W/m2
00:24 62.2 °F /  16.8 °C 59 °F /  15 °C 29.6in /  1002.0hPa ESE 0.9mph /  1.4km/h 2mph /  3.2km/h 89% 0in /  0.0mm 0 W/m2
00:29 62.1 °F /  16.7 °C 58.5 °F /  14.7 °C 29.6in /  1002.0hPa NNW 2mph /  3.2km/h 3mph /  4.8km/h 88% 0in /  0.0mm 0 W/m2
00:34 62.1 °F /  16.7 °C 58.5 °F /  14.7 °C 29.6in /  1002.0hPa SW 2.9mph /  4.7km/h 9mph /  14.5km/h 88% 0in /  0.0mm 0 W/m2
00:39 62.1 °F /  16.7 °C 58.5 °F /  14.7 °C 29.6in /  1002.0hPa NW 0.9mph /  1.4km/h 4mph /  6.4km/h 88% 0in /  0.0mm 0 W/m2
00:44 61.9 °F /  16.6 °C 58.3 °F /  14.6 °C 29.6in /  1001.7hPa West 2.9mph /  4.7km/h 9mph /  14.5km/h 88% 0in /  0.0mm 0 W/m2
00:49 61.9 °F /  16.6 °C 58.3 °F /  14.6 °C 29.6in /  1002.0hPa North 2.9mph /  4.7km/h 5mph /  8km/h 88% 0in /  0.0mm 0 W/m2
00:54 61.7 °F /  16.5 °C 58.1 °F /  14.5 °C 29.6in /  1001.7hPa East 0.9mph /  1.4km/h 6mph /  9.7km/h 88% 0in /  0.0mm 0 W/m2
00:59 61.5 °F /  16.4 °C 57.9 °F /  14.4 °C 29.6in /  1002.0hPa West 6mph /  9.7km/h 7mph /  11.3km/h 88% 0in /  0.0mm 0 W/m2
01:04 61.3 °F /  16.3 °C 57.7 °F /  14.3 °C 29.6in /  1002.0hPa West 2.9mph /  4.7km/h 4mph /  6.4km/h 88% 0in /  0.0mm 0 W/m2
01:09 61.3 °F /  16.3 °C 57.7 °F /  14.3 °C 29.6in /  1002.0hPa Calm   1mph /  1.6km/h 88% 0in /  0.0mm 0 W/m2
01:14 61.2 °F /  16.2 °C 57.9 °F /  14.4 °C 29.6in /  1002.0hPa Calm   3mph /  4.8km/h 89% 0in /  0.0mm 0 W/m2
01:19 61.2 °F /  16.2 °C 57.9 °F /  14.4 °C 29.6in /  1001.7hPa NW 0.9mph /  1.4km/h 8mph /  12.9km/h 89% 0in /  0.0mm 0 W/m2
01:24 61 °F /  16.1 °C 57.7 °F /  14.3 °C 29.6in /  1001.7hPa NE 2mph /  3.2km/h 4mph /  6.4km/h 89% 0in /  0.0mm 0 W/m2
01:29 61 °F /  16.1 °C 57.7 °F /  14.3 °C 29.6in /  1001.7hPa WNW 2mph /  3.2km/h 8mph /  12.9km/h 89% 0in /  0.0mm 0 W/m2
01:34 61 °F /  16.1 °C 57.7 °F /  14.3 °C 29.6in /  1001.7hPa Calm   3mph /  4.8km/h 89% 0in /  0.0mm 0 W/m2
01:39 60.8 °F /  16 °C 57.6 °F /  14.2 °C 29.6in /  1001.7hPa NNE 2.9mph /  4.7km/h 7mph /  11.3km/h 89% 0in /  0.0mm 0 W/m2
01:44 60.6 °F /  15.9 °C 57.4 °F /  14.1 °C 29.6in /  1001.7hPa Calm   2mph /  3.2km/h 89% 0in /  0.0mm 0 W/m2
01:49 60.6 °F /  15.9 °C 57 °F /  13.9 °C 29.6in /  1001.7hPa ESE 2mph /  3.2km/h 7mph /  11.3km/h 88% 0in /  0.0mm 0 W/m2
01:54 60.6 °F /  15.9 °C 57 °F /  13.9 °C 29.6in /  1001.7hPa NNW 6mph /  9.7km/h 7mph /  11.3km/h 88% 0in /  0.0mm 0 W/m2
01:59 60.6 °F /  15.9 °C 57 °F /  13.9 °C 29.6in /  1001.7hPa ESE 4mph /  6.4km/h 6mph /  9.7km/h 88% 0in /  0.0mm 0 W/m2
02:04 60.6 °F /  15.9 °C 57 °F /  13.9 °C 29.6in /  1001.7hPa NE 0.9mph /  1.4km/h 5mph /  8km/h 88% 0in /  0.0mm 0 W/m2
02:09 60.4 °F /  15.8 °C 57.2 °F /  14 °C 29.6in /  1001.7hPa WNW 0.9mph /  1.4km/h 5mph /  8km/h 89% 0in /  0.0mm 0 W/m2
02:14 60.4 °F /  15.8 °C 57.2 °F /  14 °C 29.6in /  1001.4hPa NW 2mph /  3.2km/h 8mph /  12.9km/h 89% 0in /  0.0mm 0 W/m2
02:19 60.3 °F /  15.7 °C 57 °F /  13.9 °C 29.6in /  1001.4hPa SSE 2mph /  3.2km/h 5mph /  8km/h 89% 0.01in /  0.2mm 0 W/m2
02:24 60.1 °F /  15.6 °C 56.8 °F /  13.8 °C 29.6in /  1001.7hPa ENE 2mph /  3.2km/h 5mph /  8km/h 89% 0.01in /  0.2mm 0 W/m2
02:29 59.7 °F /  15.4 °C 56.1 °F /  13.4 °C 29.6in /  1001.7hPa SE 2.9mph /  4.7km/h 10mph /  16.1km/h 88% 0.02in /  0.5mm 0 W/m2
02:34 59 °F /  15 °C 55.4 °F /  13 °C 29.6in /  1001.7hPa SW 0.9mph /  1.4km/h 4mph /  6.4km/h 88% 0.03in /  0.8mm 0 W/m2
02:39 58.3 °F /  14.6 °C 55 °F /  12.8 °C 29.6in /  1001.7hPa NNW 0.9mph /  1.4km/h 10mph /  16.1km/h 89% 0.05in /  1.3mm 0 W/m2
02:44 57.7 °F /  14.3 °C 54.9 °F /  12.7 °C 29.6in /  1001.7hPa West 2.9mph /  4.7km/h 10mph /  16.1km/h 90% 0.06in /  1.5mm 0 W/m2
02:49 57.6 °F /  14.2 °C 54.7 °F /  12.6 °C 29.6in /  1001.7hPa NE 2mph /  3.2km/h 5mph /  8km/h 90% 0.08in /  2.0mm 0 W/m2
02:54 57 °F /  13.9 °C 54.5 °F /  12.5 °C 29.6in /  1001.7hPa WNW 2mph /  3.2km/h 6mph /  9.7km/h 91% 0.08in /  2.0mm 0 W/m2
02:59 56.7 °F /  13.7 °C 54.1 °F /  12.3 °C 29.6in /  1002.0hPa WNW 6.9mph /  11.1km/h 8mph /  12.9km/h 91% 0.09in /  2.3mm 0 W/m2
03:04 56.1 °F /  13.4 °C 53.6 °F /  12 °C 29.6in /  1001.7hPa South 0.9mph /  1.4km/h 4mph /  6.4km/h 91% 0.1in /  2.5mm 0 W/m2
03:09 55.9 °F /  13.3 °C 53.4 °F /  11.9 °C 29.6in /  1001.7hPa East 0.9mph /  1.4km/h 3mph /  4.8km/h 91% 0.11in /  2.8mm 0 W/m2
03:14 55.6 °F /  13.1 °C 53.2 °F /  11.8 °C 29.6in /  1001.7hPa North 2.9mph /  4.7km/h 6mph /  9.7km/h 92% 0.12in /  3.0mm 0 W/m2
03:19 55.2 °F /  12.9 °C 52.9 °F /  11.6 °C 29.6in /  1001.7hPa NW 2.9mph /  4.7km/h 3mph /  4.8km/h 92% 0.12in /  3.0mm 0 W/m2
03:24 55 °F /  12.8 °C 52.7 °F /  11.5 °C 29.6in /  1001.7hPa Calm   3mph /  4.8km/h 92% 0.13in /  3.3mm 0 W/m2
03:29 55 °F /  12.8 °C 52.7 °F /  11.5 °C 29.6in /  1001.7hPa West 2mph /  3.2km/h 9mph /  14.5km/h 92% 0.12in /  3.0mm 0 W/m2
03:34 54.7 °F /  12.6 °C 52.3 °F /  11.3 °C 29.6in /  1001.7hPa NE 2mph /  3.2km/h 11mph /  17.7km/h 92% 0.11in /  2.8mm 0 W/m2
03:39 54.3 °F /  12.4 °C 52 °F /  11.1 °C 29.6in /  1002.0hPa NNW 2.9mph /  4.7km/h 4mph /  6.4km/h 92% 0.09in /  2.3mm 0 W/m2
03:44 54 °F /  12.2 °C 51.6 °F /  10.9 °C 29.6in /  1002.0hPa NNW 4mph /  6.4km/h 9mph /  14.5km/h 92% 0.08in /  2.0mm 0 W/m2
03:49 53.6 °F /  12 °C 51.3 °F /  10.7 °C 29.6in /  1002.0hPa NNE 2.9mph /  4.7km/h 7mph /  11.3km/h 92% 0.06in /  1.5mm 0 W/m2
03:54 53.2 °F /  11.8 °C 50.9 °F /  10.5 °C 29.6in /  1002.0hPa SSW 2.9mph /  4.7km/h 7mph /  11.3km/h 92% 0.06in /  1.5mm 0 W/m2
03:59 53.1 °F /  11.7 °C 50.7 °F /  10.4 °C 29.6in /  1002.0hPa NW 4mph /  6.4km/h 5mph /  8km/h 92% 0.06in /  1.5mm 0 W/m2
04:04 52.9 °F /  11.6 °C 50.5 °F /  10.3 °C 29.6in /  1001.7hPa ENE 0.9mph /  1.4km/h 2mph /  3.2km/h 92% 0.05in /  1.3mm 0 W/m2
04:09 52.5 °F /  11.4 °C 50.2 °F /  10.1 °C 29.6in /  1001.7hPa WNW 4.9mph /  7.9km/h 8mph /  12.9km/h 92% 0.05in /  1.3mm 0 W/m2
04:14 52.3 °F /  11.3 °C 50 °F /  10 °C 29.6in /  1001.7hPa NW 4mph /  6.4km/h 5mph /  8km/h 92% 0.05in /  1.3mm 0 W/m2
04:19 52.2 °F /  11.2 °C 49.8 °F /  9.9 °C 29.6in /  1001.7hPa WNW 2.9mph /  4.7km/h 8mph /  12.9km/h 92% 0.05in /  1.3mm 0 W/m2
04:24 51.8 °F /  11 °C 49.6 °F /  9.8 °C 29.6in /  1001.7hPa WNW 8.1mph /  13km/h 8mph /  12.9km/h 92% 0.04in /  1.0mm 0 W/m2
04:29 51.4 °F /  10.8 °C 49.3 °F /  9.6 °C 29.6in /  1001.7hPa West 2mph /  3.2km/h 4mph /  6.4km/h 92% 0.04in /  1.0mm 0 W/m2
04:34 51.3 °F /  10.7 °C 49.1 °F /  9.5 °C 29.6in /  1001.7hPa South 4mph /  6.4km/h 8mph /  12.9km/h 92% 0.03in /  0.8mm 0 W/m2
04:39 50.9 °F /  10.5 °C 48.7 °F /  9.3 °C 29.6in /  1001.7hPa WNW 6.9mph /  11.1km/h 8mph /  12.9km/h 92% 0.04in /  1.0mm 0 W/m2
04:44 50.5 °F /  10.3 °C 48.4 °F /  9.1 °C 29.6in /  1001.7hPa NE 4mph /  6.4km/h 9mph /  14.5km/h 92% 0.04in /  1.0mm 0 W/m2
04:49 50.4 °F /  10.2 °C 48.2 °F /  9 °C 29.6in /  1001.7hPa West 0.9mph /  1.4km/h 4mph /  6.4km/h 92% 0.04in /  1.0mm 0 W/m2
04:55 50.2 °F /  10.1 °C 48 °F /  8.9 °C 29.6in /  1001.7hPa NW 2mph /  3.2km/h 9mph /  14.5km/h 92% 0.04in /  1.0mm 0 W/m2
05:00 49.8 °F /  9.9 °C 47.7 °F /  8.7 °C 29.6in /  1001.7hPa WNW 2.9mph /  4.7km/h 11mph /  17.7km/h 92% 0.04in /  1.0mm 0 W/m2
05:05 49.6 °F /  9.8 °C 47.5 °F /  8.6 °C 29.6in /  1001.7hPa NNW 0.9mph /  1.4km/h 9mph /  14.5km/h 92% 0.04in /  1.0mm 0 W/m2
05:10 49.5 °F /  9.7 °C 47.3 °F /  8.5 °C 29.6in /  1001.7hPa NW 0.9mph /  1.4km/h 9mph /  14.5km/h 92% 0.03in /  0.8mm 0 W/m2
05:15 49.3 °F /  9.6 °C 47.1 °F /  8.4 °C 29.6in /  1001.7hPa NNW 8.9mph /  14.3km/h 9mph /  14.5km/h 92% 0.02in /  0.5mm 0 W/m2
05:20 48.9 °F /  9.4 °C 46.8 °F /  8.2 °C 29.6in /  1001.7hPa WSW 4mph /  6.4km/h 4mph /  6.4km/h 92% 0.02in /  0.5mm 0 W/m2
05:25 48.7 °F /  9.3 °C 46.6 °F /  8.1 °C 29.6in /  1001.7hPa SSW 2mph /  3.2km/h 6mph /  9.7km/h 92% 0.02in /  0.5mm 0 W/m2
05:30 48.4 °F /  9.1 °C 46.2 °F /  7.9 °C 29.6in /  1001.7hPa WNW 4mph /  6.4km/h 15mph /  24.1km/h 92% 0.03in /  0.8mm 0 W/m2
05:35 48 °F /  8.9 °C 45.9 °F /  7.7 °C 29.6in /  1001.7hPa NW 4mph /  6.4km/h 12mph /  19.3km/h 92% 0.02in /  0.5mm 0 W/m2
05:40 47.7 °F /  8.7 °C 45.5 °F /  7.5 °C 29.6in /  1001.7hPa WSW 2.9mph /  4.7km/h 15mph /  24.1km/h 92% 0.02in /  0.5mm 0 W/m2
05:45 47.5 °F /  8.6 °C 45.3 °F /  7.4 °C 29.6in /  1001.7hPa North 2.9mph /  4.7km/h 11mph /  17.7km/h 92% 0.02in /  0.5mm 0 W/m2
05:50 47.3 °F /  8.5 °C 45.1 °F /  7.3 °C 29.6in /  1002.0hPa WNW 4mph /  6.4km/h 12mph /  19.3km/h 92% 0.03in /  0.8mm 0 W/m2
05:55 46.9 °F /  8.3 °C 44.8 °F /  7.1 °C 29.6in /  1001.7hPa WSW 8.1mph /  13km/h 9mph /  14.5km/h 92% 0.03in /  0.8mm 0 W/m2
06:01 46.8 °F /  8.2 °C 44.6 °F /  7 °C 29.6in /  1001.7hPa NNW 6mph /  9.7km/h 12mph /  19.3km/h 92% 0.02in /  0.5mm 0 W/m2
06:06 46.6 °F /  8.1 °C 44.4 °F /  6.9 °C 29.6in /  1001.7hPa WNW 8.1mph /  13km/h 12mph /  19.3km/h 92% 0.02in /  0.5mm 0 W/m2
06:11 46.2 °F /  7.9 °C 44.1 °F /  6.7 °C 29.6in /  1001.7hPa West 10.1mph /  16.3km/h 11mph /  17.7km/h 92% 0.02in /  0.5mm 0 W/m2
06:16 46 °F /  7.8 °C 43.5 °F /  6.4 °C 29.6in /  1002.0hPa NNW 6mph /  9.7km/h 9mph /  14.5km/h 91% 0.02in /  0.5mm 0 W/m2
06:21 45.9 °F /  7.7 °C 43.3 °F /  6.3 °C 29.6in /  1002.0hPa NNW 2mph /  3.2km/h 10mph /  16.1km/h 91% 0.02in /  0.5mm 0 W/m2
06:26 45.7 °F /  7.6 °C 43.5 °F /  6.4 °C 29.6in /  1002.0hPa NW 13mph /  20.9km/h 13mph /  20.9km/h 92% 0.02in /  0.5mm 0 W/m2
06:31 45.5 °F /  7.5 °C 43 °F /  6.1 °C 29.6in /  1002.0hPa West 6.9mph /  11.1km/h 7mph /  11.3km/h 91% 0.01in /  0.2mm 0 W/m2
06:36 45.3 °F /  7.4 °C 42.8 °F /  6 °C 29.6in /  1002.0hPa ENE 2mph /  3.2km/h 5mph /  8km/h 91% 0.02in /  0.5mm 0 W/m2
06:41 45.1 °F /  7.3 °C 43 °F /  6.1 °C 29.6in /  1002.0hPa NW 8.9mph /  14.3km/h 9mph /  14.5km/h 92% 0.02in /  0.5mm 5 W/m2
06:46 45.1 °F /  7.3 °C 43 °F /  6.1 °C 29.6in /  1002.0hPa SE 2mph /  3.2km/h 11mph /  17.7km/h 92% 0.02in /  0.5mm 7 W/m2
06:51 44.8 °F /  7.1 °C 42.3 °F /  5.7 °C 29.6in /  1002.4hPa NW 2.9mph /  4.7km/h 10mph /  16.1km/h 91% 0.02in /  0.5mm 7 W/m2
06:56 44.6 °F /  7 °C 42.1 °F /  5.6 °C 29.6in /  1002.0hPa SW 4.9mph /  7.9km/h 9mph /  14.5km/h 91% 0.02in /  0.5mm 9 W/m2
07:01 44.2 °F /  6.8 °C 42.1 °F /  5.6 °C 29.6in /  1002.0hPa East 2mph /  3.2km/h 10mph /  16.1km/h 92% 0.02in /  0.5mm 11 W/m2
07:06 44.1 °F /  6.7 °C 41.5 °F /  5.3 °C 29.6in /  1002.0hPa NNE 8.1mph /  13km/h 10mph /  16.1km/h 91% 0.02in /  0.5mm 7 W/m2
07:11 43.9 °F /  6.6 °C 41.7 °F /  5.4 °C 29.6in /  1002.4hPa West 6mph /  9.7km/h 14mph /  22.5km/h 92% 0.03in /  0.8mm 7 W/m2
07:16 43.7 °F /  6.5 °C 41.5 °F /  5.3 °C 29.6in /  1002.4hPa North 8.1mph /  13km/h 10mph /  16.1km/h 92% 0.03in /  0.8mm 7 W/m2
07:21 43.5 °F /  6.4 °C 41.4 °F /  5.2 °C 29.6in /  1002.4hPa North 4mph /  6.4km/h 7mph /  11.3km/h 92% 0.03in /  0.8mm 9 W/m2
07:26 43.3 °F /  6.3 °C 41.2 °F /  5.1 °C 29.6in /  1002.4hPa SSW 0.9mph /  1.4km/h 5mph /  8km/h 92% 0.04in /  1.0mm 11 W/m2
07:31 43.3 °F /  6.3 °C 41.2 °F /  5.1 °C 29.6in /  1002.4hPa North 2.9mph /  4.7km/h 14mph /  22.5km/h 92% 0.04in /  1.0mm 12 W/m2
07:36 43.2 °F /  6.2 °C 41 °F /  5 °C 29.6in /  1002.4hPa NNE 8.9mph /  14.3km/h 10mph /  16.1km/h 92% 0.03in /  0.8mm 14 W/m2
07:41 43 °F /  6.1 °C 40.8 °F /  4.9 °C 29.6in /  1002.4hPa North 2.9mph /  4.7km/h 14mph /  22.5km/h 92% 0.03in /  0.8mm 14 W/m2
07:46 43 °F /  6.1 °C 40.8 °F /  4.9 °C 29.6in /  1002.4hPa ENE 6mph /  9.7km/h 11mph /  17.7km/h 92% 0.02in /  0.5mm 16 W/m2
07:51 43 °F /  6.1 °C 40.8 °F /  4.9 °C 29.6in /  1002.4hPa North 8.9mph /  14.3km/h 12mph /  19.3km/h 92% 0.02in /  0.5mm 14 W/m2
07:56 43 °F /  6.1 °C 40.8 °F /  4.9 °C 29.6in /  1002.4hPa NE 6mph /  9.7km/h 9mph /  14.5km/h 92% 0.02in /  0.5mm 16 W/m2
08:01 42.8 °F /  6 °C 40.6 °F /  4.8 °C 29.6in /  1002.4hPa NNW 4.9mph /  7.9km/h 13mph /  20.9km/h 92% 0.02in /  0.5mm 18 W/m2
08:06 42.6 °F /  5.9 °C 40.5 °F /  4.7 °C 29.6in /  1002.4hPa West 2.9mph /  4.7km/h 12mph /  19.3km/h 92% 0.02in /  0.5mm 21 W/m2
08:11 42.6 °F /  5.9 °C 40.5 °F /  4.7 °C 29.6in /  1002.4hPa ESE 4mph /  6.4km/h 10mph /  16.1km/h 92% 0.02in /  0.5mm 19 W/m2
08:16 42.4 °F /  5.8 °C 40.3 °F /  4.6 °C 29.6in /  1002.4hPa NNE 2.9mph /  4.7km/h 12mph /  19.3km/h 92% 0.02in /  0.5mm 23 W/m2
08:21 42.4 °F /  5.8 °C 40.3 °F /  4.6 °C 29.6in /  1002.4hPa NE 2mph /  3.2km/h 4mph /  6.4km/h 92% 0.02in /  0.5mm 30 W/m2
08:26 42.4 °F /  5.8 °C 40.3 °F /  4.6 °C 29.6in /  1002.4hPa NNW 4.9mph /  7.9km/h 11mph /  17.7km/h 92% 0.01in /  0.2mm 32 W/m2
08:31 42.4 °F /  5.8 °C 40.3 °F /  4.6 °C 29.6in /  1002.4hPa West 0.9mph /  1.4km/h 7mph /  11.3km/h 92% 0.02in /  0.5mm 28 W/m2
08:36 42.3 °F /  5.7 °C 40.1 °F /  4.5 °C 29.6in /  1002.4hPa West 6mph /  9.7km/h 9mph /  14.5km/h 92% 0.02in /  0.5mm 28 W/m2
08:41 42.3 °F /  5.7 °C 40.1 °F /  4.5 °C 29.6in /  1002.4hPa East 4mph /  6.4km/h 7mph /  11.3km/h 92% 0.02in /  0.5mm 30 W/m2
08:46 42.3 °F /  5.7 °C 40.1 °F /  4.5 °C 29.6in /  1002.4hPa NW 8.9mph /  14.3km/h 12mph /  19.3km/h 92% 0.02in /  0.5mm 30 W/m2
08:51 42.3 °F /  5.7 °C 40.1 °F /  4.5 °C 29.6in /  1002.7hPa WSW 0.9mph /  1.4km/h 8mph /  12.9km/h 92% 0.02in /  0.5mm 33 W/m2
08:56 42.1 °F /  5.6 °C 39.9 °F /  4.4 °C 29.6in /  1002.7hPa WNW 8.1mph /  13km/h 13mph /  20.9km/h 92% 0.02in /  0.5mm 40 W/m2
09:01 42.3 °F /  5.7 °C 40.1 °F /  4.5 °C 29.6in /  1002.7hPa East 2mph /  3.2km/h 6mph /  9.7km/h 92% 0.02in /  0.5mm 44 W/m2
09:06 42.3 °F /  5.7 °C 40.1 °F /  4.5 °C 29.6in /  1002.7hPa NE 2mph /  3.2km/h 6mph /  9.7km/h 92% 0.01in /  0.2mm 35 W/m2
09:11 42.3 °F /  5.7 °C 40.1 °F /  4.5 °C 29.6in /  1002.7hPa NNE 2mph /  3.2km/h 7mph /  11.3km/h 92% 0.01in /  0.2mm 35 W/m2
09:16 42.3 °F /  5.7 °C 40.1 °F /  4.5 °C 29.6in /  1003.0hPa NNW 6mph /  9.7km/h 11mph /  17.7km/h 92% 0.02in /  0.5mm 35 W/m2
09:21 42.3 °F /  5.7 °C 40.1 °F /  4.5 °C 29.6in /  1003.0hPa North 4mph /  6.4km/h 4mph /  6.4km/h 92% 0.02in /  0.5mm 35 W/m2
09:26 42.3 °F /  5.7 °C 40.1 °F /  4.5 °C 29.6in /  1003.0hPa NW 4mph /  6.4km/h 12mph /  19.3km/h 92% 0.02in /  0.5mm 35 W/m2
09:31 42.3 °F /  5.7 °C 40.1 °F /  4.5 °C 29.6in /  1002.7hPa NW 6.9mph /  11.1km/h 7mph /  11.3km/h 92% 0.01in /  0.2mm 32 W/m2
09:36 42.3 °F /  5.7 °C 40.1 °F /  4.5 °C 29.6in /  1003.0hPa NNW 2.9mph /  4.7km/h 8mph /  12.9km/h 92% 0.01in /  0.2mm 35 W/m2
09:41 42.3 °F /  5.7 °C 40.1 °F /  4.5 °C 29.6in /  1002.7hPa ESE 2.9mph /  4.7km/h 9mph /  14.5km/h 92% 0.01in /  0.2mm 37 W/m2
09:46 42.3 °F /  5.7 °C 40.1 °F /  4.5 °C 29.6in /  1003.0hPa West 4mph /  6.4km/h 12mph /  19.3km/h 92% 0.01in /  0.2mm 37 W/m2
09:51 42.3 °F /  5.7 °C 40.1 °F /  4.5 °C 29.6in /  1003.0hPa NE 2.9mph /  4.7km/h 5mph /  8km/h 92% 0.01in /  0.2mm 39 W/m2
09:56 42.3 °F /  5.7 °C 39.7 °F /  4.3 °C 29.6in /  1003.0hPa NNW 2.9mph /  4.7km/h 8mph /  12.9km/h 91% 0.01in /  0.2mm 37 W/m2
10:01 42.3 °F /  5.7 °C 40.1 °F /  4.5 °C 29.6in /  1003.4hPa ENE 4.9mph /  7.9km/h 6mph /  9.7km/h 92% 0.01in /  0.2mm 37 W/m2
10:06 42.3 °F /  5.7 °C 40.1 °F /  4.5 °C 29.6in /  1003.0hPa NNW 4.9mph /  7.9km/h 17mph /  27.4km/h 92% 0.01in /  0.2mm 39 W/m2
10:11 42.3 °F /  5.7 °C 39.7 °F /  4.3 °C 29.6in /  1003.4hPa SSW 2.9mph /  4.7km/h 8mph /  12.9km/h 91% 0.01in /  0.2mm 44 W/m2
10:16 42.3 °F /  5.7 °C 39.7 °F /  4.3 °C 29.6in /  1003.4hPa WNW 6.9mph /  11.1km/h 17mph /  27.4km/h 91% 0in /  0.0mm 44 W/m2
10:22 42.3 °F /  5.7 °C 39.7 °F /  4.3 °C 29.6in /  1003.4hPa North 2.9mph /  4.7km/h 14mph /  22.5km/h 91% 0in /  0.0mm 51 W/m2
10:27 42.3 °F /  5.7 °C 40.1 °F /  4.5 °C 29.6in /  1003.4hPa NW 11mph /  17.7km/h 16mph /  25.7km/h 92% 0.01in /  0.2mm 54 W/m2
10:32 42.1 °F /  5.6 °C 39.9 °F /  4.4 °C 29.6in /  1003.7hPa NNW 10.1mph /  16.3km/h 10mph /  16.1km/h 92% 0.01in /  0.2mm 56 W/m2
10:37 42.1 °F /  5.6 °C 39.6 °F /  4.2 °C 29.6in /  1003.7hPa East 6.9mph /  11.1km/h 11mph /  17.7km/h 91% 0.01in /  0.2mm 58 W/m2
10:42 42.1 °F /  5.6 °C 39.6 °F /  4.2 °C 29.6in /  1003.7hPa NNE 8.9mph /  14.3km/h 9mph /  14.5km/h 91% 0.01in /  0.2mm 65 W/m2
10:47 42.1 °F /  5.6 °C 39.6 °F /  4.2 °C 29.7in /  1004.1hPa ENE 6.9mph /  11.1km/h 11mph /  17.7km/h 91% 0.01in /  0.2mm 58 W/m2
10:52 42.1 °F /  5.6 °C 39.6 °F /  4.2 °C 29.7in /  1004.1hPa WSW 4.9mph /  7.9km/h 11mph /  17.7km/h 91% 0.01in /  0.2mm 63 W/m2
10:57 42.1 °F /  5.6 °C 39.6 °F /  4.2 °C 29.7in /  1004.1hPa SE 4mph /  6.4km/h 12mph /  19.3km/h 91% 0.01in /  0.2mm 62 W/m2
11:02 42.1 °F /  5.6 °C 39.6 °F /  4.2 °C 29.7in /  1004.1hPa North 13mph /  20.9km/h 13mph /  20.9km/h 91% 0.01in /  0.2mm 62 W/m2
11:07 42.1 °F /  5.6 °C 39.6 °F /  4.2 °C 29.7in /  1004.1hPa NNW 6mph /  9.7km/h 15mph /  24.1km/h 91% 0.02in /  0.5mm 54 W/m2
11:12 42.1 °F /  5.6 °C 39.6 °F /  4.2 °C 29.7in /  1004.1hPa SSW 2mph /  3.2km/h 7mph /  11.3km/h 91% 0.02in /  0.5mm 58 W/m2
11:17 42.1 °F /  5.6 °C 39.6 °F /  4.2 °C 29.7in /  1004.1hPa East 2mph /  3.2km/h 9mph /  14.5km/h 91% 0.02in /  0.5mm 53 W/m2
11:22 42.1 °F /  5.6 °C 39.6 °F /  4.2 °C 29.7in /  1004.1hPa WNW 8.9mph /  14.3km/h 9mph /  14.5km/h 91% 0.02in /  0.5mm 62 W/m2
11:27 41.9 °F /  5.5 °C 39.4 °F /  4.1 °C 29.7in /  1004.4hPa WSW 2mph /  3.2km/h 9mph /  14.5km/h 91% 0.02in /  0.5mm 65 W/m2
11:32 41.7 °F /  5.4 °C 39 °F /  3.9 °C 29.7in /  1004.4hPa NNE 4.9mph /  7.9km/h 10mph /  16.1km/h 90% 0.02in /  0.5mm 81 W/m2
11:37 41.7 °F /  5.4 °C 39 °F /  3.9 °C 29.7in /  1004.4hPa WNW 8.9mph /  14.3km/h 14mph /  22.5km/h 90% 0.02in /  0.5mm 86 W/m2
11:42 41.9 °F /  5.5 °C 39.2 °F /  4 °C 29.7in /  1004.4hPa West 4mph /  6.4km/h 11mph /  17.7km/h 90% 0.03in /  0.8mm 95 W/m2
11:47 41.9 °F /  5.5 °C 39.2 °F /  4 °C 29.7in /  1004.4hPa NW 4mph /  6.4km/h 14mph /  22.5km/h 90% 0.03in /  0.8mm 105 W/m2
11:52 42.1 °F /  5.6 °C 39.6 °F /  4.2 °C 29.7in /  1004.4hPa East 2.9mph /  4.7km/h 6mph /  9.7km/h 91% 0.03in /  0.8mm 102 W/m2
11:57 42.1 °F /  5.6 °C 39.6 °F /  4.2 °C 29.7in /  1004.4hPa SE 2mph /  3.2km/h 8mph /  12.9km/h 91% 0.04in /  1.0mm 91 W/m2
12:02 42.1 °F /  5.6 °C 39.6 °F /  4.2 °C 29.7in /  1004.7hPa ENE 0.9mph /  1.4km/h 5mph /  8km/h 91% 0.04in /  1.0mm 95 W/m2
12:07 41.9 °F /  5.5 °C 39.4 °F /  4.1 °C 29.7in /  1004.4hPa SSW 4mph /  6.4km/h 9mph /  14.5km/h 91% 0.04in /  1.0mm 100 W/m2
12:12 41.9 °F /  5.5 °C 39.4 °F /  4.1 °C 29.7in /  1004.7hPa NE 4mph /  6.4km/h 11mph /  17.7km/h 91% 0.04in /  1.0mm 97 W/m2
12:17 41.9 °F /  5.5 °C 39.2 °F /  4 °C 29.7in /  1004.7hPa ENE 4.9mph /  7.9km/h 12mph /  19.3km/h 90% 0.03in /  0.8mm 102 W/m2
12:22 41.7 °F /  5.4 °C 39 °F /  3.9 °C 29.7in /  1004.7hPa SSE 2mph /  3.2km/h 15mph /  24.1km/h 90% 0.04in /  1.0mm 105 W/m2
12:27 41.7 °F /  5.4 °C 39 °F /  3.9 °C 29.7in /  1004.7hPa ENE 4mph /  6.4km/h 4mph /  6.4km/h 90% 0.04in /  1.0mm 97 W/m2
12:32 41.7 °F /  5.4 °C 39 °F /  3.9 °C 29.7in /  1005.1hPa WSW 8.9mph /  14.3km/h 10mph /  16.1km/h 90% 0.04in /  1.0mm 90 W/m2
12:37 41.7 °F /  5.4 °C 39 °F /  3.9 °C 29.7in /  1005.1hPa SE 4mph /  6.4km/h 8mph /  12.9km/h 90% 0.04in /  1.0mm 93 W/m2
12:42 41.7 °F /  5.4 °C 39 °F /  3.9 °C 29.7in /  1005.1hPa SW 4mph /  6.4km/h 7mph /  11.3km/h 90% 0.04in /  1.0mm 107 W/m2
12:47 41.7 °F /  5.4 °C 39 °F /  3.9 °C 29.7in /  1005.1hPa ESE 10.1mph /  16.3km/h 14mph /  22.5km/h 90% 0.04in /  1.0mm 118 W/m2
12:52 41.7 °F /  5.4 °C 39 °F /  3.9 °C 29.7in /  1005.1hPa ENE 4mph /  6.4km/h 5mph /  8km/h 90% 0.05in /  1.3mm 142 W/m2
12:57 41.7 °F /  5.4 °C 39 °F /  3.9 °C 29.7in /  1005.1hPa ENE 2.9mph /  4.7km/h 14mph /  22.5km/h 90% 0.04in /  1.0mm 146 W/m2
13:03 41.9 °F /  5.5 °C 39.2 °F /  4 °C 29.7in /  1005.1hPa East 6.9mph /  11.1km/h 8mph /  12.9km/h 90% 0.03in /  0.8mm 141 W/m2
13:08 41.9 °F /  5.5 °C 39.2 °F /  4 °C 29.7in /  1005.1hPa South 2mph /  3.2km/h 5mph /  8km/h 90% 0.03in /  0.8mm 125 W/m2
13:13 41.9 °F /  5.5 °C 39.2 °F /  4 °C 29.7in /  1005.4hPa NNW 2.9mph /  4.7km/h 5mph /  8km/h 90% 0.04in /  1.0mm 132 W/m2
13:18 42.1 °F /  5.6 °C 39.4 °F /  4.1 °C 29.7in /  1005.4hPa ENE 2mph /  3.2km/h 6mph /  9.7km/h 90% 0.04in /  1.0mm 128 W/m2
13:23 41.9 °F /  5.5 °C 39.2 °F /  4 °C 29.7in /  1005.4hPa NW 2.9mph /  4.7km/h 9mph /  14.5km/h 90% 0.04in /  1.0mm 144 W/m2
13:28 42.1 °F /  5.6 °C 39.4 °F /  4.1 °C 29.7in /  1005.4hPa East 4mph /  6.4km/h 9mph /  14.5km/h 90% 0.04in /  1.0mm 135 W/m2
13:33 42.1 °F /  5.6 °C 39.4 °F /  4.1 °C 29.7in /  1005.8hPa SSE 2mph /  3.2km/h 11mph /  17.7km/h 90% 0.03in /  0.8mm 128 W/m2
13:38 42.1 °F /  5.6 °C 39.6 °F /  4.2 °C 29.7in /  1005.8hPa ESE 4mph /  6.4km/h 4mph /  6.4km/h 91% 0.04in /  1.0mm 142 W/m2
13:43 42.3 °F /  5.7 °C 39.7 °F /  4.3 °C 29.7in /  1005.8hPa NNE 2.9mph /  4.7km/h 5mph /  8km/h 91% 0.03in /  0.8mm 148 W/m2
13:48 42.3 °F /  5.7 °C 39.6 °F /  4.2 °C 29.7in /  1005.8hPa SE 2mph /  3.2km/h 5mph /  8km/h 90% 0.04in /  1.0mm 142 W/m2
13:53 42.3 °F /  5.7 °C 39.6 °F /  4.2 °C 29.7in /  1005.8hPa SSE 2.9mph /  4.7km/h 7mph /  11.3km/h 90% 0.03in /  0.8mm 132 W/m2
13:58 42.3 °F /  5.7 °C 39.6 °F /  4.2 °C 29.7in /  1005.8hPa NNW 2mph /  3.2km/h 4mph /  6.4km/h 90% 0.03in /  0.8mm 120 W/m2
14:03 42.3 °F /  5.7 °C 39.6 °F /  4.2 °C 29.7in /  1006.1hPa ENE 2mph /  3.2km/h 13mph /  20.9km/h 90% 0.04in /  1.0mm 116 W/m2
14:08 42.4 °F /  5.8 °C 39.4 °F /  4.1 °C 29.7in /  1006.1hPa NW 0.9mph /  1.4km/h 6mph /  9.7km/h 89% 0.04in /  1.0mm 113 W/m2
14:13 42.4 °F /  5.8 °C 39.4 °F /  4.1 °C 29.7in /  1006.4hPa WSW 2mph /  3.2km/h 14mph /  22.5km/h 89% 0.03in /  0.8mm 105 W/m2
14:18 42.4 °F /  5.8 °C 39.4 °F /  4.1 °C 29.7in /  1006.1hPa NNE 2.9mph /  4.7km/h 4mph /  6.4km/h 89% 0.04in /  1.0mm 114 W/m2
14:23 42.6 °F /  5.9 °C 39.6 °F /  4.2 °C 29.7in /  1006.4hPa ESE 2mph /  3.2km/h 14mph /  22.5km/h 89% 0.03in /  0.8mm 118 W/m2
14:28 42.6 °F /  5.9 °C 39.6 °F /  4.2 °C 29.7in /  1006.4hPa ESE 0.9mph /  1.4km/h 5mph /  8km/h 89% 0.03in /  0.8mm 116 W/m2
14:33 42.6 °F /  5.9 °C 39.6 °F /  4.2 °C 29.7in /  1006.4hPa East 2mph /  3.2km/h 8mph /  12.9km/h 89% 0.03in /  0.8mm 120 W/m2
14:38 43 °F /  6.1 °C 40.3 °F /  4.6 °C 29.7in /  1006.8hPa North 2mph /  3.2km/h 4mph /  6.4km/h 90% 0.02in /  0.5mm 121 W/m2
14:43 43 °F /  6.1 °C 40.3 °F /  4.6 °C 29.7in /  1006.8hPa ESE 2mph /  3.2km/h 6mph /  9.7km/h 90% 0.02in /  0.5mm 125 W/m2
14:48 43.2 °F /  6.2 °C 40.5 °F /  4.7 °C 29.7in /  1006.8hPa NW 2mph /  3.2km/h 7mph /  11.3km/h 90% 0.02in /  0.5mm 137 W/m2
14:53 43.3 °F /  6.3 °C 40.3 °F /  4.6 °C 29.7in /  1006.8hPa WNW 2mph /  3.2km/h 5mph /  8km/h 89% 0.02in /  0.5mm 149 W/m2
14:58 43.5 °F /  6.4 °C 40.5 °F /  4.7 °C 29.7in /  1006.8hPa SSE 0.9mph /  1.4km/h 7mph /  11.3km/h 89% 0.02in /  0.5mm 151 W/m2
15:03 43.7 °F /  6.5 °C 41 °F /  5 °C 29.7in /  1007.1hPa NE 2mph /  3.2km/h 6mph /  9.7km/h 90% 0.02in /  0.5mm 141 W/m2
15:08 43.9 °F /  6.6 °C 40.8 °F /  4.9 °C 29.7in /  1007.1hPa ENE 4.9mph /  7.9km/h 5mph /  8km/h 89% 0.02in /  0.5mm 141 W/m2
15:13 43.9 °F /  6.6 °C 40.8 °F /  4.9 °C 29.7in /  1007.1hPa WNW 0.9mph /  1.4km/h 7mph /  11.3km/h 89% 0.02in /  0.5mm 142 W/m2
15:18 44.1 °F /  6.7 °C 41 °F /  5 °C 29.8in /  1007.5hPa NE 2.9mph /  4.7km/h 8mph /  12.9km/h 89% 0.02in /  0.5mm 141 W/m2
15:23 44.1 °F /  6.7 °C 40.8 °F /  4.9 °C 29.8in /  1007.5hPa SE 2mph /  3.2km/h 5mph /  8km/h 88% 0.02in /  0.5mm 141 W/m2
15:28 44.2 °F /  6.8 °C 41.2 °F /  5.1 °C 29.8in /  1007.5hPa NE 2.9mph /  4.7km/h 4mph /  6.4km/h 89% 0.02in /  0.5mm 146 W/m2
15:33 44.2 °F /  6.8 °C 41.2 °F /  5.1 °C 29.8in /  1007.5hPa East 0.9mph /  1.4km/h 2mph /  3.2km/h 89% 0.02in /  0.5mm 148 W/m2
15:38 44.6 °F /  7 °C 41.9 °F /  5.5 °C 29.8in /  1007.5hPa East 0.9mph /  1.4km/h 1mph /  1.6km/h 90% 0.02in /  0.5mm 156 W/m2
15:43 44.8 °F /  7.1 °C 42.3 °F /  5.7 °C 29.8in /  1007.8hPa Calm   1mph /  1.6km/h 91% 0.02in /  0.5mm 172 W/m2
15:48 45 °F /  7.2 °C 42.4 °F /  5.8 °C 29.8in /  1007.8hPa Calm   1mph /  1.6km/h 91% 0.02in /  0.5mm 163 W/m2
15:53 45.1 °F /  7.3 °C 42.6 °F /  5.9 °C 29.8in /  1007.8hPa East 0.9mph /  1.4km/h 2mph /  3.2km/h 91% 0.02in /  0.5mm 171 W/m2
15:58 45.1 °F /  7.3 °C 42.6 °F /  5.9 °C 29.8in /  1007.8hPa East 0.9mph /  1.4km/h 2mph /  3.2km/h 91% 0.02in /  0.5mm 185 W/m2
16:03 45.1 °F /  7.3 °C 42.6 °F /  5.9 °C 29.8in /  1007.8hPa Calm   2mph /  3.2km/h 91% 0.01in /  0.2mm 185 W/m2
16:08 45.3 °F /  7.4 °C 42.8 °F /  6 °C 29.8in /  1007.8hPa Calm   2mph /  3.2km/h 91% 0.01in /  0.2mm 183 W/m2
16:13 45.5 °F /  7.5 °C 43 °F /  6.1 °C 29.8in /  1007.8hPa SW 0.9mph /  1.4km/h 1mph /  1.6km/h 91% 0.01in /  0.2mm 174 W/m2
16:18 45.5 °F /  7.5 °C 43 °F /  6.1 °C 29.8in /  1008.1hPa SE 0.9mph /  1.4km/h 3mph /  4.8km/h 91% 0in /  0.0mm 188 W/m2
16:23 45.5 °F /  7.5 °C 43 °F /  6.1 °C 29.8in /  1008.1hPa ENE 0.9mph /  1.4km/h 2mph /  3.2km/h 91% 0in /  0.0mm 218 W/m2
16:28 45.3 °F /  7.4 °C 42.6 °F /  5.9 °C 29.8in /  1008.1hPa Calm   2mph /  3.2km/h 90% 0in /  0.0mm 227 W/m2
16:33 45.5 °F /  7.5 °C 42.8 °F /  6 °C 29.8in /  1008.1hPa Calm   3mph /  4.8km/h 90% 0in /  0.0mm 229 W/m2
16:38 45.5 °F /  7.5 °C 42.4 °F /  5.8 °C 29.8in /  1008.5hPa ENE 2.9mph /  4.7km/h 4mph /  6.4km/h 89% 0in /  0.0mm 227 W/m2
16:43 45.7 °F /  7.6 °C 42.6 °F /  5.9 °C 29.8in /  1008.5hPa East 4mph /  6.4km/h 4mph /  6.4km/h 89% 0in /  0.0mm 225 W/m2
16:49 45.5 °F /  7.5 °C 42.1 °F /  5.6 °C 29.8in /  1008.5hPa ENE 0.9mph /  1.4km/h 3mph /  4.8km/h 88% 0in /  0.0mm 199 W/m2
16:54 45.7 °F /  7.6 °C 42.3 °F /  5.7 °C 29.8in /  1008.5hPa ESE 0.9mph /  1.4km/h 2mph /  3.2km/h 88% 0in /  0.0mm 199 W/m2
16:59 45.9 °F /  7.7 °C 42.8 °F /  6 °C 29.8in /  1008.8hPa Calm   2mph /  3.2km/h 89% 0in /  0.0mm 171 W/m2
17:04 46 °F /  7.8 °C 43 °F /  6.1 °C 29.8in /  1008.8hPa Calm   2mph /  3.2km/h 89% 0in /  0.0mm 141 W/m2
17:09 46 °F /  7.8 °C 42.6 °F /  5.9 °C 29.8in /  1008.8hPa East 2mph /  3.2km/h 2mph /  3.2km/h 88% 0in /  0.0mm 139 W/m2
17:14 45.9 °F /  7.7 °C 42.3 °F /  5.7 °C 29.8in /  1008.8hPa Calm   2mph /  3.2km/h 87% 0in /  0.0mm 160 W/m2
17:19 45.9 °F /  7.7 °C 42.4 °F /  5.8 °C 29.8in /  1008.8hPa Calm   2mph /  3.2km/h 88% 0in /  0.0mm 188 W/m2
17:24 46 °F /  7.8 °C 42.6 °F /  5.9 °C 29.8in /  1009.1hPa Calm     88% 0in /  0.0mm 192 W/m2
17:29 46 °F /  7.8 °C 42.6 °F /  5.9 °C 29.8in /  1009.1hPa ESE 2mph /  3.2km/h 3mph /  4.8km/h 88% 0in /  0.0mm 206 W/m2
17:34 46.2 °F /  7.9 °C 42.8 °F /  6 °C 29.8in /  1009.1hPa Calm   1mph /  1.6km/h 88% 0in /  0.0mm 200 W/m2
17:39 46.2 °F /  7.9 °C 42.6 °F /  5.9 °C 29.8in /  1009.1hPa ESE 0.9mph /  1.4km/h 3mph /  4.8km/h 87% 0in /  0.0mm 183 W/m2
17:44 46.2 °F /  7.9 °C 41.9 °F /  5.5 °C 29.8in /  1009.1hPa Calm   2mph /  3.2km/h 85% 0in /  0.0mm 202 W/m2
17:49 46.6 °F /  8.1 °C 43 °F /  6.1 °C 29.8in /  1009.5hPa Calm   1mph /  1.6km/h 87% 0in /  0.0mm 234 W/m2
17:54 46.6 °F /  8.1 °C 42.3 °F /  5.7 °C 29.8in /  1009.5hPa East 0.9mph /  1.4km/h 2mph /  3.2km/h 85% 0in /  0.0mm 237 W/m2
17:59 46.6 °F /  8.1 °C 42.1 °F /  5.6 °C 29.8in /  1009.5hPa SE 2mph /  3.2km/h 2mph /  3.2km/h 84% 0in /  0.0mm 260 W/m2
18:04 46.8 °F /  8.2 °C 42.3 °F /  5.7 °C 29.8in /  1009.5hPa Calm   2mph /  3.2km/h 84% 0in /  0.0mm 239 W/m2
18:09 47.1 °F /  8.4 °C 42.6 °F /  5.9 °C 29.8in /  1009.5hPa SE 0.9mph /  1.4km/h 1mph /  1.6km/h 84% 0in /  0.0mm 221 W/m2
18:14 47.3 °F /  8.5 °C 43 °F /  6.1 °C 29.8in /  1009.5hPa ESE 0.9mph /  1.4km/h 2mph /  3.2km/h 85% 0in /  0.0mm 213 W/m2
18:19 47.3 °F /  8.5 °C 42.4 °F /  5.8 °C 29.8in /  1009.5hPa Calm   2mph /  3.2km/h 83% 0in /  0.0mm 378 W/m2
18:24 47.7 °F /  8.7 °C 43 °F /  6.1 °C 29.8in /  1009.8hPa Calm   3mph /  4.8km/h 84% 0in /  0.0mm 294 W/m2
18:29 48 °F /  8.9 °C 43.3 °F /  6.3 °C 29.8in /  1009.8hPa Calm     84% 0in /  0.0mm 411 W/m2
18:34 48.4 °F /  9.1 °C 43.7 °F /  6.5 °C 29.8in /  1009.8hPa Calm   2mph /  3.2km/h 84% 0in /  0.0mm 404 W/m2
18:39 48.7 °F /  9.3 °C 43.9 °F /  6.6 °C 29.8in /  1009.8hPa SE 0.9mph /  1.4km/h 1mph /  1.6km/h 83% 0in /  0.0mm 385 W/m2
18:44 49.3 °F /  9.6 °C 44.6 °F /  7 °C 29.8in /  1009.8hPa Calm   2mph /  3.2km/h 84% 0in /  0.0mm 236 W/m2
18:49 49.5 °F /  9.7 °C 44.2 °F /  6.8 °C 29.8in /  1009.8hPa ESE 0.9mph /  1.4km/h 4mph /  6.4km/h 82% 0in /  0.0mm 417 W/m2
18:54 49.5 °F /  9.7 °C 43.5 °F /  6.4 °C 29.8in /  1009.8hPa East 2mph /  3.2km/h 3mph /  4.8km/h 80% 0in /  0.0mm 338 W/m2
18:59 49.5 °F /  9.7 °C 43.9 °F /  6.6 °C 29.8in /  1010.2hPa East 0.9mph /  1.4km/h 2mph /  3.2km/h 81% 0in /  0.0mm 221 W/m2
19:04 49.5 °F /  9.7 °C 44.2 °F /  6.8 °C 29.8in /  1010.2hPa ESE 0.9mph /  1.4km/h 1mph /  1.6km/h 82% 0in /  0.0mm 116 W/m2
19:09 49.5 °F /  9.7 °C 44.2 °F /  6.8 °C 29.8in /  1010.2hPa ESE 0.9mph /  1.4km/h 1mph /  1.6km/h 82% 0in /  0.0mm 105 W/m2
19:14 49.3 °F /  9.6 °C 44.1 °F /  6.7 °C 29.8in /  1010.2hPa Calm   1mph /  1.6km/h 82% 0in /  0.0mm 123 W/m2
19:19 49.3 °F /  9.6 °C 44.6 °F /  7 °C 29.8in /  1010.2hPa Calm   1mph /  1.6km/h 84% 0in /  0.0mm 121 W/m2
19:24 49.3 °F /  9.6 °C 45 °F /  7.2 °C 29.8in /  1010.2hPa Calm   1mph /  1.6km/h 85% 0in /  0.0mm 95 W/m2
19:29 49.3 °F /  9.6 °C 45 °F /  7.2 °C 29.8in /  1010.2hPa Calm   1mph /  1.6km/h 85% 0in /  0.0mm 54 W/m2
19:34 48.9 °F /  9.4 °C 44.6 °F /  7 °C 29.8in /  1010.5hPa Calm   1mph /  1.6km/h 85% 0in /  0.0mm 42 W/m2
19:39 48.7 °F /  9.3 °C 44.8 °F /  7.1 °C 29.8in /  1010.5hPa Calm     86% 0in /  0.0mm 47 W/m2
19:44 48.2 °F /  9 °C 43.9 °F /  6.6 °C 29.8in /  1010.5hPa Calm   2mph /  3.2km/h 85% 0in /  0.0mm 49 W/m2
19:49 47.5 °F /  8.6 °C 43.5 °F /  6.4 °C 29.9in /  1010.8hPa Calm   2mph /  3.2km/h 86% 0in /  0.0mm 37 W/m2
19:54 46.9 °F /  8.3 °C 43.3 °F /  6.3 °C 29.9in /  1010.8hPa West 2mph /  3.2km/h 3mph /  4.8km/h 87% 0in /  0.0mm 70 W/m2
19:59 46.6 °F /  8.1 °C 43.2 °F /  6.2 °C 29.9in /  1010.8hPa West 0.9mph /  1.4km/h 2mph /  3.2km/h 88% 0in /  0.0mm 63 W/m2
20:04 46.6 °F /  8.1 °C 43.2 °F /  6.2 °C 29.9in /  1010.8hPa WNW 2mph /  3.2km/h 2mph /  3.2km/h 88% 0in /  0.0mm 105 W/m2
20:09 46.9 °F /  8.3 °C 43.9 °F /  6.6 °C 29.9in /  1011.2hPa WNW 0.9mph /  1.4km/h 1mph /  1.6km/h 89% 0in /  0.0mm 91 W/m2
20:14 47.1 °F /  8.4 °C 44.1 °F /  6.7 °C 29.9in /  1011.2hPa NW 0.9mph /  1.4km/h 2mph /  3.2km/h 89% 0in /  0.0mm 74 W/m2
20:19 47.3 °F /  8.5 °C 44.2 °F /  6.8 °C 29.9in /  1011.2hPa Calm     89% 0in /  0.0mm 44 W/m2
20:24 47.5 °F /  8.6 °C 44.4 °F /  6.9 °C 29.9in /  1011.2hPa Calm   2mph /  3.2km/h 89% 0in /  0.0mm 39 W/m2
20:29 47.3 °F /  8.5 °C 44.2 °F /  6.8 °C 29.9in /  1011.5hPa Calm   1mph /  1.6km/h 89% 0in /  0.0mm 32 W/m2
20:35 47.1 °F /  8.4 °C 44.1 °F /  6.7 °C 29.9in /  1011.5hPa Calm   1mph /  1.6km/h 89% 0in /  0.0mm 32 W/m2
20:40 46.8 °F /  8.2 °C 43.7 °F /  6.5 °C 29.9in /  1011.5hPa NW 0.9mph /  1.4km/h 2mph /  3.2km/h 89% 0in /  0.0mm 23 W/m2
20:45 46.6 °F /  8.1 °C 43.9 °F /  6.6 °C 29.9in /  1011.5hPa Calm   1mph /  1.6km/h 90% 0in /  0.0mm 18 W/m2
20:50 46.2 °F /  7.9 °C 43.5 °F /  6.4 °C 29.9in /  1011.9hPa Calm   2mph /  3.2km/h 90% 0in /  0.0mm 14 W/m2
20:55 46 °F /  7.8 °C 43.3 °F /  6.3 °C 29.9in /  1011.9hPa Calm   1mph /  1.6km/h 90% 0in /  0.0mm 11 W/m2
21:00 45.9 °F /  7.7 °C 43.3 °F /  6.3 °C 29.9in /  1012.2hPa Calm     91% 0in /  0.0mm 9 W/m2
21:05 45.5 °F /  7.5 °C 42.8 °F /  6 °C 29.9in /  1012.2hPa Calm   2mph /  3.2km/h 90% 0in /  0.0mm 5 W/m2
21:10 45.1 °F /  7.3 °C 42.4 °F /  5.8 °C 29.9in /  1012.2hPa NW 2mph /  3.2km/h 2mph /  3.2km/h 90% 0in /  0.0mm 0 W/m2
21:15 44.8 °F /  7.1 °C 42.3 °F /  5.7 °C 29.9in /  1012.5hPa NW 0.9mph /  1.4km/h 2mph /  3.2km/h 91% 0in /  0.0mm 0 W/m2
21:20 44.2 °F /  6.8 °C 41.7 °F /  5.4 °C 29.9in /  1012.5hPa NW 0.9mph /  1.4km/h 2mph /  3.2km/h 91% 0in /  0.0mm 0 W/m2
21:25 44.1 °F /  6.7 °C 41.5 °F /  5.3 °C 29.9in /  1012.9hPa NW 0.9mph /  1.4km/h 1mph /  1.6km/h 91% 0in /  0.0mm 0 W/m2
21:30 43.9 °F /  6.6 °C 41.7 °F /  5.4 °C 29.9in /  1012.9hPa Calm     92% 0in /  0.0mm 0 W/m2
21:35 43.5 °F /  6.4 °C 41.4 °F /  5.2 °C 29.9in /  1012.9hPa NW 0.9mph /  1.4km/h 1mph /  1.6km/h 92% 0in /  0.0mm 0 W/m2
21:40 43.3 °F /  6.3 °C 41.2 °F /  5.1 °C 29.9in /  1013.2hPa Calm   1mph /  1.6km/h 92% 0in /  0.0mm 0 W/m2
21:45 43.2 °F /  6.2 °C 41.4 °F /  5.2 °C 29.9in /  1013.2hPa Calm     93% 0in /  0.0mm 0 W/m2
21:50 43.2 °F /  6.2 °C 41.4 °F /  5.2 °C 29.9in /  1013.2hPa NW 0.9mph /  1.4km/h 2mph /  3.2km/h 93% 0in /  0.0mm 0 W/m2
21:56 43.2 °F /  6.2 °C 41.4 °F /  5.2 °C 29.9in /  1013.2hPa NW 0.9mph /  1.4km/h 1mph /  1.6km/h 93% 0in /  0.0mm 0 W/m2
22:01 43 °F /  6.1 °C 41.2 °F /  5.1 °C 29.9in /  1013.5hPa WNW 0.9mph /  1.4km/h 1mph /  1.6km/h 93% 0in /  0.0mm 0 W/m2
22:06 43 °F /  6.1 °C 41.2 °F /  5.1 °C 29.9in /  1013.5hPa WNW 2mph /  3.2km/h 2mph /  3.2km/h 93% 0in /  0.0mm 0 W/m2
22:11 42.8 °F /  6 °C 41.2 °F /  5.1 °C 29.9in /  1013.5hPa SSW 0.9mph /  1.4km/h 2mph /  3.2km/h 94% 0in /  0.0mm 0 W/m2
22:16 42.6 °F /  5.9 °C 41 °F /  5 °C 29.9in /  1013.5hPa Calm     94% 0in /  0.0mm 0 W/m2
22:21 42.4 °F /  5.8 °C 40.6 °F /  4.8 °C 29.9in /  1013.9hPa SSW 0.9mph /  1.4km/h 1mph /  1.6km/h 93% 0in /  0.0mm 0 W/m2
22:26 42.3 °F /  5.7 °C 40.6 °F /  4.8 °C 29.9in /  1013.9hPa Calm   1mph /  1.6km/h 94% 0in /  0.0mm 0 W/m2
22:31 42.1 °F /  5.6 °C 40.5 °F /  4.7 °C 29.9in /  1013.9hPa Calm     94% 0in /  0.0mm 0 W/m2
22:36 41.9 °F /  5.5 °C 40.3 °F /  4.6 °C 29.9in /  1013.9hPa Calm   1mph /  1.6km/h 94% 0in /  0.0mm 0 W/m2
22:41 41.7 °F /  5.4 °C 40.1 °F /  4.5 °C 29.9in /  1013.9hPa Calm   2mph /  3.2km/h 94% 0in /  0.0mm 0 W/m2
22:46 41.5 °F /  5.3 °C 39.9 °F /  4.4 °C 30in /  1014.2hPa Calm   2mph /  3.2km/h 94% 0in /  0.0mm 0 W/m2
22:51 41.4 °F /  5.2 °C 39.7 °F /  4.3 °C 30in /  1014.2hPa Calm   1mph /  1.6km/h 94% 0in /  0.0mm 0 W/m2
22:56 41.4 °F /  5.2 °C 39.7 °F /  4.3 °C 30in /  1014.2hPa SSW 0.9mph /  1.4km/h 2mph /  3.2km/h 94% 0in /  0.0mm 0 W/m2
23:01 41.2 °F /  5.1 °C 39.6 °F /  4.2 °C 30in /  1014.2hPa Calm     94% 0in /  0.0mm 0 W/m2
23:06 41.2 °F /  5.1 °C 39.9 °F /  4.4 °C 30in /  1014.6hPa Calm     95% 0in /  0.0mm 0 W/m2
23:11 41.2 °F /  5.1 °C 39.6 °F /  4.2 °C 30in /  1014.6hPa WSW 0.9mph /  1.4km/h 1mph /  1.6km/h 94% 0in /  0.0mm 0 W/m2
23:16 40.8 °F /  4.9 °C 39.2 °F /  4 °C 30in /  1014.6hPa Calm   2mph /  3.2km/h 94% 0in /  0.0mm 0 W/m2
23:22 40.8 °F /  4.9 °C 39.6 °F /  4.2 °C 30in /  1014.6hPa Calm   1mph /  1.6km/h 95% 0in /  0.0mm 0 W/m2
23:27 40.6 °F /  4.8 °C 39.4 °F /  4.1 °C 30in /  1014.6hPa Calm   2mph /  3.2km/h 95% 0in /  0.0mm 0 W/m2
23:32 40.5 °F /  4.7 °C 38.8 °F /  3.8 °C 30in /  1014.9hPa Calm     94% 0in /  0.0mm 0 W/m2
23:37 40.5 °F /  4.7 °C 39.2 °F /  4 °C 30in /  1014.9hPa Calm   1mph /  1.6km/h 95% 0in /  0.0mm 0 W/m2
23:42 40.5 °F /  4.7 °C 39.2 °F /  4 °C 30in /  1014.9hPa Calm     95% 0in /  0.0mm 0 W/m2
23:47 40.3 °F /  4.6 °C 39 °F /  3.9 °C 30in /  1015.2hPa Calm     95% 0in /  0.0mm 0 W/m2
23:52 40.1 °F /  4.5 °C 38.8 °F /  3.8 °C 30in /  1015.2hPa Calm     95% 0in /  0.0mm 0 W/m2
23:57 39.9 °F /  4.4 °C 38.7 °F /  3.7 °C 30in /  1015.2hPa Calm     95% 0in /  0.0mm 0 W/m2
Juneau County Weather
Compliments of Weather Underground - 4 mb